sensor_id;sensor_type;location;lat;lon;timestamp;P1;durP1;ratioP1;P2;durP2;ratioP2
12385;SDS011;6257;57.634;18.310;2022-08-19T00:01:16;20.10;;;18.20;;
12385;SDS011;6257;57.634;18.310;2022-08-19T00:03:43;20.87;;;19.07;;
12385;SDS011;6257;57.634;18.310;2022-08-19T00:06:10;20.83;;;18.67;;
12385;SDS011;6257;57.634;18.310;2022-08-19T00:08:37;20.50;;;18.53;;
12385;SDS011;6257;57.634;18.310;2022-08-19T00:11:04;20.13;;;18.23;;
12385;SDS011;6257;57.634;18.310;2022-08-19T00:13:32;21.17;;;19.03;;
12385;SDS011;6257;57.634;18.310;2022-08-19T00:16:00;21.17;;;19.00;;
12385;SDS011;6257;57.634;18.310;2022-08-19T00:18:28;20.40;;;18.47;;
12385;SDS011;6257;57.634;18.310;2022-08-19T00:20:55;20.60;;;18.67;;
12385;SDS011;6257;57.634;18.310;2022-08-19T00:23:23;21.27;;;19.10;;
12385;SDS011;6257;57.634;18.310;2022-08-19T00:25:50;21.03;;;19.07;;
12385;SDS011;6257;57.634;18.310;2022-08-19T00:28:17;24.70;;;19.30;;
12385;SDS011;6257;57.634;18.310;2022-08-19T00:30:45;20.93;;;18.93;;
12385;SDS011;6257;57.634;18.310;2022-08-19T00:33:12;19.83;;;17.93;;
12385;SDS011;6257;57.634;18.310;2022-08-19T00:35:43;20.53;;;18.73;;
12385;SDS011;6257;57.634;18.310;2022-08-19T00:38:10;21.83;;;19.63;;
12385;SDS011;6257;57.634;18.310;2022-08-19T00:40:37;21.63;;;19.37;;
12385;SDS011;6257;57.634;18.310;2022-08-19T00:43:07;23.73;;;19.33;;
12385;SDS011;6257;57.634;18.310;2022-08-19T00:45:35;21.30;;;19.40;;
12385;SDS011;6257;57.634;18.310;2022-08-19T00:48:03;20.77;;;18.83;;
12385;SDS011;6257;57.634;18.310;2022-08-19T00:50:31;23.23;;;18.90;;
12385;SDS011;6257;57.634;18.310;2022-08-19T00:52:59;21.80;;;19.53;;
12385;SDS011;6257;57.634;18.310;2022-08-19T00:55:29;21.40;;;19.37;;
12385;SDS011;6257;57.634;18.310;2022-08-19T00:58:00;21.10;;;19.10;;
12385;SDS011;6257;57.634;18.310;2022-08-19T01:00:30;23.13;;;20.67;;
12385;SDS011;6257;57.634;18.310;2022-08-19T01:03:01;22.70;;;20.40;;
12385;SDS011;6257;57.634;18.310;2022-08-19T01:05:29;23.73;;;21.43;;
12385;SDS011;6257;57.634;18.310;2022-08-19T01:07:57;25.97;;;23.27;;
12385;SDS011;6257;57.634;18.310;2022-08-19T01:10:29;23.73;;;21.23;;
12385;SDS011;6257;57.634;18.310;2022-08-19T01:12:58;23.43;;;21.17;;
12385;SDS011;6257;57.634;18.310;2022-08-19T01:15:29;24.80;;;21.30;;
12385;SDS011;6257;57.634;18.310;2022-08-19T01:17:58;26.13;;;23.33;;
12385;SDS011;6257;57.634;18.310;2022-08-19T01:20:30;26.17;;;23.53;;
12385;SDS011;6257;57.634;18.310;2022-08-19T01:23:01;26.87;;;24.03;;
12385;SDS011;6257;57.634;18.310;2022-08-19T01:25:29;28.73;;;22.00;;
12385;SDS011;6257;57.634;18.310;2022-08-19T01:28:01;23.93;;;21.73;;
12385;SDS011;6257;57.634;18.310;2022-08-19T01:30:31;32.70;;;23.70;;
12385;SDS011;6257;57.634;18.310;2022-08-19T01:32:59;24.93;;;22.43;;
12385;SDS011;6257;57.634;18.310;2022-08-19T01:35:30;26.33;;;23.63;;
12385;SDS011;6257;57.634;18.310;2022-08-19T01:37:59;23.80;;;21.47;;
12385;SDS011;6257;57.634;18.310;2022-08-19T01:40:31;23.50;;;21.40;;
12385;SDS011;6257;57.634;18.310;2022-08-19T01:43:03;23.13;;;20.80;;
12385;SDS011;6257;57.634;18.310;2022-08-19T01:45:31;23.73;;;20.53;;
12385;SDS011;6257;57.634;18.310;2022-08-19T01:48:00;22.10;;;20.10;;
12385;SDS011;6257;57.634;18.310;2022-08-19T01:50:27;21.83;;;19.63;;
12385;SDS011;6257;57.634;18.310;2022-08-19T01:52:56;23.07;;;20.80;;
12385;SDS011;6257;57.634;18.310;2022-08-19T01:55:26;21.93;;;19.93;;
12385;SDS011;6257;57.634;18.310;2022-08-19T01:57:54;22.20;;;20.10;;
12385;SDS011;6257;57.634;18.310;2022-08-19T02:00:24;23.17;;;20.67;;
12385;SDS011;6257;57.634;18.310;2022-08-19T02:02:54;22.57;;;20.07;;
12385;SDS011;6257;57.634;18.310;2022-08-19T02:05:21;22.47;;;20.30;;
12385;SDS011;6257;57.634;18.310;2022-08-19T02:07:48;21.13;;;18.80;;
12385;SDS011;6257;57.634;18.310;2022-08-19T02:10:17;21.77;;;19.47;;
12385;SDS011;6257;57.634;18.310;2022-08-19T02:12:49;20.83;;;18.93;;
12385;SDS011;6257;57.634;18.310;2022-08-19T02:15:16;22.27;;;20.07;;
12385;SDS011;6257;57.634;18.310;2022-08-19T02:17:45;21.27;;;19.07;;
12385;SDS011;6257;57.634;18.310;2022-08-19T02:20:13;21.83;;;19.73;;
12385;SDS011;6257;57.634;18.310;2022-08-19T02:22:41;22.10;;;19.90;;
12385;SDS011;6257;57.634;18.310;2022-08-19T02:25:09;23.20;;;20.57;;
12385;SDS011;6257;57.634;18.310;2022-08-19T02:27:36;23.03;;;19.90;;
12385;SDS011;6257;57.634;18.310;2022-08-19T02:30:06;22.60;;;19.67;;
12385;SDS011;6257;57.634;18.310;2022-08-19T02:32:34;23.10;;;20.80;;
12385;SDS011;6257;57.634;18.310;2022-08-19T02:35:02;23.03;;;20.73;;
12385;SDS011;6257;57.634;18.310;2022-08-19T02:37:29;21.40;;;19.40;;
12385;SDS011;6257;57.634;18.310;2022-08-19T02:40:13;21.67;;;19.60;;
12385;SDS011;6257;57.634;18.310;2022-08-19T02:42:42;20.93;;;19.13;;
12385;SDS011;6257;57.634;18.310;2022-08-19T02:45:12;21.23;;;19.13;;
12385;SDS011;6257;57.634;18.310;2022-08-19T02:47:39;21.03;;;19.13;;
12385;SDS011;6257;57.634;18.310;2022-08-19T02:50:07;22.13;;;19.70;;
12385;SDS011;6257;57.634;18.310;2022-08-19T02:52:34;21.40;;;19.03;;
12385;SDS011;6257;57.634;18.310;2022-08-19T02:55:03;21.67;;;19.43;;
12385;SDS011;6257;57.634;18.310;2022-08-19T02:57:31;21.87;;;19.97;;
12385;SDS011;6257;57.634;18.310;2022-08-19T02:59:59;22.27;;;19.90;;
12385;SDS011;6257;57.634;18.310;2022-08-19T03:02:28;22.03;;;19.73;;
12385;SDS011;6257;57.634;18.310;2022-08-19T03:04:55;21.47;;;19.47;;
12385;SDS011;6257;57.634;18.310;2022-08-19T03:07:22;21.97;;;19.57;;
12385;SDS011;6257;57.634;18.310;2022-08-19T03:09:49;20.83;;;18.87;;
12385;SDS011;6257;57.634;18.310;2022-08-19T03:12:16;20.97;;;18.93;;
12385;SDS011;6257;57.634;18.310;2022-08-19T03:14:43;22.00;;;19.83;;
12385;SDS011;6257;57.634;18.310;2022-08-19T03:17:11;21.07;;;19.10;;
12385;SDS011;6257;57.634;18.310;2022-08-19T03:19:40;21.73;;;19.63;;
12385;SDS011;6257;57.634;18.310;2022-08-19T03:22:08;20.63;;;18.50;;
12385;SDS011;6257;57.634;18.310;2022-08-19T03:24:35;21.20;;;19.00;;
12385;SDS011;6257;57.634;18.310;2022-08-19T03:27:03;20.10;;;18.30;;
12385;SDS011;6257;57.634;18.310;2022-08-19T03:29:30;20.50;;;18.50;;
12385;SDS011;6257;57.634;18.310;2022-08-19T03:31:58;20.43;;;18.53;;
12385;SDS011;6257;57.634;18.310;2022-08-19T03:34:27;21.97;;;19.90;;
12385;SDS011;6257;57.634;18.310;2022-08-19T03:36:58;22.10;;;20.07;;
12385;SDS011;6257;57.634;18.310;2022-08-19T03:39:29;23.13;;;20.73;;
12385;SDS011;6257;57.634;18.310;2022-08-19T03:41:56;21.83;;;19.73;;
12385;SDS011;6257;57.634;18.310;2022-08-19T03:44:27;20.80;;;18.63;;
12385;SDS011;6257;57.634;18.310;2022-08-19T03:46:58;21.03;;;18.90;;
12385;SDS011;6257;57.634;18.310;2022-08-19T03:49:26;20.90;;;18.80;;
12385;SDS011;6257;57.634;18.310;2022-08-19T03:51:55;22.43;;;18.87;;
12385;SDS011;6257;57.634;18.310;2022-08-19T03:54:26;24.40;;;22.00;;
12385;SDS011;6257;57.634;18.310;2022-08-19T03:56:54;25.73;;;22.93;;
12385;SDS011;6257;57.634;18.310;2022-08-19T03:59:22;25.27;;;22.50;;
12385;SDS011;6257;57.634;18.310;2022-08-19T04:01:52;24.90;;;22.40;;
12385;SDS011;6257;57.634;18.310;2022-08-19T04:04:20;28.07;;;24.40;;
12385;SDS011;6257;57.634;18.310;2022-08-19T04:06:47;24.50;;;22.17;;
12385;SDS011;6257;57.634;18.310;2022-08-19T04:09:17;23.80;;;21.60;;
12385;SDS011;6257;57.634;18.310;2022-08-19T04:11:46;25.03;;;22.73;;
12385;SDS011;6257;57.634;18.310;2022-08-19T04:14:15;26.07;;;23.30;;
12385;SDS011;6257;57.634;18.310;2022-08-19T04:16:44;27.53;;;24.67;;
12385;SDS011;6257;57.634;18.310;2022-08-19T04:19:12;28.93;;;23.37;;
12385;SDS011;6257;57.634;18.310;2022-08-19T04:21:40;25.03;;;22.47;;
12385;SDS011;6257;57.634;18.310;2022-08-19T04:24:10;24.63;;;22.20;;
12385;SDS011;6257;57.634;18.310;2022-08-19T04:26:38;28.77;;;22.70;;
12385;SDS011;6257;57.634;18.310;2022-08-19T04:29:07;24.60;;;21.47;;
12385;SDS011;6257;57.634;18.310;2022-08-19T04:31:36;21.43;;;19.53;;
12385;SDS011;6257;57.634;18.310;2022-08-19T04:34:04;22.07;;;19.73;;
12385;SDS011;6257;57.634;18.310;2022-08-19T04:36:33;20.70;;;18.63;;
12385;SDS011;6257;57.634;18.310;2022-08-19T04:39:03;24.33;;;19.00;;
12385;SDS011;6257;57.634;18.310;2022-08-19T04:41:33;19.67;;;17.27;;
12385;SDS011;6257;57.634;18.310;2022-08-19T04:44:19;19.30;;;17.23;;
12385;SDS011;6257;57.634;18.310;2022-08-19T04:46:47;19.17;;;17.30;;
12385;SDS011;6257;57.634;18.310;2022-08-19T04:49:16;20.53;;;18.07;;
12385;SDS011;6257;57.634;18.310;2022-08-19T04:51:45;17.70;;;16.00;;
12385;SDS011;6257;57.634;18.310;2022-08-19T04:54:14;17.07;;;14.83;;
12385;SDS011;6257;57.634;18.310;2022-08-19T04:56:42;18.20;;;15.80;;
12385;SDS011;6257;57.634;18.310;2022-08-19T04:59:09;16.93;;;14.93;;
12385;SDS011;6257;57.634;18.310;2022-08-19T05:01:38;16.00;;;14.03;;
12385;SDS011;6257;57.634;18.310;2022-08-19T05:04:06;14.33;;;12.93;;
12385;SDS011;6257;57.634;18.310;2022-08-19T05:06:33;15.40;;;13.40;;
12385;SDS011;6257;57.634;18.310;2022-08-19T05:09:02;19.83;;;12.57;;
12385;SDS011;6257;57.634;18.310;2022-08-19T05:11:31;17.00;;;12.63;;
12385;SDS011;6257;57.634;18.310;2022-08-19T05:14:00;15.13;;;11.33;;
12385;SDS011;6257;57.634;18.310;2022-08-19T05:16:27;16.40;;;11.67;;
12385;SDS011;6257;57.634;18.310;2022-08-19T05:18:56;15.27;;;10.27;;
12385;SDS011;6257;57.634;18.310;2022-08-19T05:21:49;13.37;;;11.37;;
12385;SDS011;6257;57.634;18.310;2022-08-19T05:24:48;20.13;;;10.90;;
12385;SDS011;6257;57.634;18.310;2022-08-19T05:27:15;16.07;;;10.50;;
12385;SDS011;6257;57.634;18.310;2022-08-19T05:29:42;11.20;;;9.53;;
12385;SDS011;6257;57.634;18.310;2022-08-19T05:32:09;11.83;;;9.63;;
12385;SDS011;6257;57.634;18.310;2022-08-19T05:34:38;12.17;;;9.23;;
12385;SDS011;6257;57.634;18.310;2022-08-19T05:37:05;11.27;;;8.77;;
12385;SDS011;6257;57.634;18.310;2022-08-19T05:39:34;14.50;;;9.07;;
12385;SDS011;6257;57.634;18.310;2022-08-19T05:42:04;13.00;;;8.80;;
12385;SDS011;6257;57.634;18.310;2022-08-19T05:44:35;11.47;;;8.03;;
12385;SDS011;6257;57.634;18.310;2022-08-19T05:47:04;11.57;;;8.40;;
12385;SDS011;6257;57.634;18.310;2022-08-19T05:49:33;12.87;;;8.33;;
12385;SDS011;6257;57.634;18.310;2022-08-19T05:52:04;12.40;;;8.67;;
12385;SDS011;6257;57.634;18.310;2022-08-19T05:54:33;12.63;;;8.30;;
12385;SDS011;6257;57.634;18.310;2022-08-19T05:57:01;12.23;;;8.37;;
12385;SDS011;6257;57.634;18.310;2022-08-19T05:59:28;12.00;;;8.33;;
12385;SDS011;6257;57.634;18.310;2022-08-19T06:01:56;14.13;;;8.33;;
12385;SDS011;6257;57.634;18.310;2022-08-19T06:04:25;11.30;;;8.40;;
12385;SDS011;6257;57.634;18.310;2022-08-19T06:06:53;11.93;;;7.57;;
12385;SDS011;6257;57.634;18.310;2022-08-19T06:09:22;9.43;;;8.00;;
12385;SDS011;6257;57.634;18.310;2022-08-19T06:11:50;11.80;;;8.43;;
12385;SDS011;6257;57.634;18.310;2022-08-19T06:14:19;11.80;;;8.90;;
12385;SDS011;6257;57.634;18.310;2022-08-19T06:16:48;12.17;;;8.93;;
12385;SDS011;6257;57.634;18.310;2022-08-19T06:19:18;9.80;;;8.60;;
12385;SDS011;6257;57.634;18.310;2022-08-19T06:21:47;9.63;;;8.40;;
12385;SDS011;6257;57.634;18.310;2022-08-19T06:24:16;13.07;;;8.53;;
12385;SDS011;6257;57.634;18.310;2022-08-19T06:26:51;25.23;;;9.10;;
12385;SDS011;6257;57.634;18.310;2022-08-19T06:29:21;23.00;;;8.80;;
12385;SDS011;6257;57.634;18.310;2022-08-19T06:31:50;15.57;;;8.90;;
12385;SDS011;6257;57.634;18.310;2022-08-19T06:34:19;14.33;;;8.80;;
12385;SDS011;6257;57.634;18.310;2022-08-19T06:36:48;11.87;;;8.83;;
12385;SDS011;6257;57.634;18.310;2022-08-19T06:39:18;10.80;;;8.80;;
12385;SDS011;6257;57.634;18.310;2022-08-19T06:41:47;14.50;;;9.13;;
12385;SDS011;6257;57.634;18.310;2022-08-19T06:44:17;11.97;;;8.60;;
12385;SDS011;6257;57.634;18.310;2022-08-19T06:46:45;14.20;;;8.30;;
12385;SDS011;6257;57.634;18.310;2022-08-19T06:49:12;15.03;;;8.80;;
12385;SDS011;6257;57.634;18.310;2022-08-19T06:51:40;13.90;;;8.70;;
12385;SDS011;6257;57.634;18.310;2022-08-19T06:54:08;14.13;;;8.50;;
12385;SDS011;6257;57.634;18.310;2022-08-19T06:56:36;9.60;;;8.20;;
12385;SDS011;6257;57.634;18.310;2022-08-19T06:59:04;12.20;;;8.70;;
12385;SDS011;6257;57.634;18.310;2022-08-19T07:01:36;13.60;;;7.77;;
12385;SDS011;6257;57.634;18.310;2022-08-19T07:04:05;9.13;;;7.77;;
12385;SDS011;6257;57.634;18.310;2022-08-19T07:06:33;11.00;;;7.60;;
12385;SDS011;6257;57.634;18.310;2022-08-19T07:09:01;12.67;;;7.87;;
12385;SDS011;6257;57.634;18.310;2022-08-19T07:11:29;10.50;;;7.67;;
12385;SDS011;6257;57.634;18.310;2022-08-19T07:13:57;12.30;;;7.77;;
12385;SDS011;6257;57.634;18.310;2022-08-19T07:16:24;7.87;;;7.10;;
12385;SDS011;6257;57.634;18.310;2022-08-19T07:18:54;13.50;;;7.77;;
12385;SDS011;6257;57.634;18.310;2022-08-19T07:21:23;10.80;;;7.10;;
12385;SDS011;6257;57.634;18.310;2022-08-19T07:23:51;9.07;;;7.37;;
12385;SDS011;6257;57.634;18.310;2022-08-19T07:26:20;11.00;;;7.60;;
12385;SDS011;6257;57.634;18.310;2022-08-19T07:28:50;10.37;;;7.57;;
12385;SDS011;6257;57.634;18.310;2022-08-19T07:31:18;11.77;;;7.00;;
12385;SDS011;6257;57.634;18.310;2022-08-19T07:33:47;7.17;;;6.47;;
12385;SDS011;6257;57.634;18.310;2022-08-19T07:36:18;11.70;;;6.87;;
12385;SDS011;6257;57.634;18.310;2022-08-19T07:38:48;10.00;;;6.80;;
12385;SDS011;6257;57.634;18.310;2022-08-19T07:41:17;14.60;;;7.17;;
12385;SDS011;6257;57.634;18.310;2022-08-19T07:43:46;10.53;;;6.80;;
12385;SDS011;6257;57.634;18.310;2022-08-19T07:46:14;10.23;;;6.70;;
12385;SDS011;6257;57.634;18.310;2022-08-19T07:48:42;14.27;;;7.10;;
12385;SDS011;6257;57.634;18.310;2022-08-19T07:51:13;8.93;;;6.57;;
12385;SDS011;6257;57.634;18.310;2022-08-19T07:53:43;15.37;;;6.83;;
12385;SDS011;6257;57.634;18.310;2022-08-19T07:56:11;12.00;;;6.80;;
12385;SDS011;6257;57.634;18.310;2022-08-19T07:58:40;10.00;;;6.70;;
12385;SDS011;6257;57.634;18.310;2022-08-19T08:01:10;12.57;;;6.93;;
12385;SDS011;6257;57.634;18.310;2022-08-19T08:03:39;11.80;;;6.50;;
12385;SDS011;6257;57.634;18.310;2022-08-19T08:06:24;12.93;;;6.67;;
12385;SDS011;6257;57.634;18.310;2022-08-19T08:09:11;8.63;;;6.13;;
12385;SDS011;6257;57.634;18.310;2022-08-19T08:11:43;8.33;;;6.33;;
12385;SDS011;6257;57.634;18.310;2022-08-19T08:14:14;14.27;;;6.23;;
12385;SDS011;6257;57.634;18.310;2022-08-19T08:16:42;12.57;;;6.43;;
12385;SDS011;6257;57.634;18.310;2022-08-19T08:19:10;8.63;;;6.33;;
12385;SDS011;6257;57.634;18.310;2022-08-19T08:21:40;10.67;;;6.30;;
12385;SDS011;6257;57.634;18.310;2022-08-19T08:24:07;9.20;;;6.47;;
12385;SDS011;6257;57.634;18.310;2022-08-19T08:26:36;7.87;;;6.40;;
12385;SDS011;6257;57.634;18.310;2022-08-19T08:29:04;13.80;;;7.20;;
12385;SDS011;6257;57.634;18.310;2022-08-19T08:31:33;11.80;;;7.07;;
12385;SDS011;6257;57.634;18.310;2022-08-19T08:34:00;15.70;;;7.43;;
12385;SDS011;6257;57.634;18.310;2022-08-19T08:36:27;9.43;;;7.07;;
12385;SDS011;6257;57.634;18.310;2022-08-19T08:38:58;10.23;;;7.17;;
12385;SDS011;6257;57.634;18.310;2022-08-19T08:41:27;10.17;;;7.23;;
12385;SDS011;6257;57.634;18.310;2022-08-19T08:43:59;16.03;;;7.40;;
12385;SDS011;6257;57.634;18.310;2022-08-19T08:46:30;11.70;;;6.87;;
12385;SDS011;6257;57.634;18.310;2022-08-19T08:49:07;11.03;;;6.80;;
12385;SDS011;6257;57.634;18.310;2022-08-19T08:51:44;11.70;;;6.87;;
12385;SDS011;6257;57.634;18.310;2022-08-19T08:54:16;10.53;;;7.17;;
12385;SDS011;6257;57.634;18.310;2022-08-19T08:56:46;9.40;;;7.07;;
12385;SDS011;6257;57.634;18.310;2022-08-19T08:59:19;13.70;;;7.50;;
12385;SDS011;6257;57.634;18.310;2022-08-19T09:01:49;11.27;;;6.60;;
12385;SDS011;6257;57.634;18.310;2022-08-19T09:04:16;11.20;;;6.83;;
12385;SDS011;6257;57.634;18.310;2022-08-19T09:06:46;9.30;;;6.63;;
12385;SDS011;6257;57.634;18.310;2022-08-19T09:09:18;10.70;;;6.97;;
12385;SDS011;6257;57.634;18.310;2022-08-19T09:11:55;10.90;;;6.80;;
12385;SDS011;6257;57.634;18.310;2022-08-19T09:14:34;10.17;;;6.57;;
12385;SDS011;6257;57.634;18.310;2022-08-19T09:17:06;9.93;;;6.87;;
12385;SDS011;6257;57.634;18.310;2022-08-19T09:19:35;10.00;;;6.53;;
12385;SDS011;6257;57.634;18.310;2022-08-19T09:22:14;9.27;;;6.97;;
12385;SDS011;6257;57.634;18.310;2022-08-19T09:24:41;11.87;;;7.10;;
12385;SDS011;6257;57.634;18.310;2022-08-19T09:27:08;11.67;;;7.00;;
12385;SDS011;6257;57.634;18.310;2022-08-19T09:29:37;11.97;;;7.27;;
12385;SDS011;6257;57.634;18.310;2022-08-19T09:32:04;10.50;;;7.60;;
12385;SDS011;6257;57.634;18.310;2022-08-19T09:34:31;10.67;;;6.80;;
12385;SDS011;6257;57.634;18.310;2022-08-19T09:36:58;13.73;;;7.40;;
12385;SDS011;6257;57.634;18.310;2022-08-19T09:39:26;9.20;;;6.70;;
12385;SDS011;6257;57.634;18.310;2022-08-19T09:41:53;9.97;;;6.97;;
12385;SDS011;6257;57.634;18.310;2022-08-19T09:44:20;10.67;;;7.00;;
12385;SDS011;6257;57.634;18.310;2022-08-19T09:46:48;14.03;;;7.50;;
12385;SDS011;6257;57.634;18.310;2022-08-19T09:49:16;10.77;;;6.87;;
12385;SDS011;6257;57.634;18.310;2022-08-19T09:51:44;9.73;;;6.60;;
12385;SDS011;6257;57.634;18.310;2022-08-19T09:54:15;11.27;;;6.57;;
12385;SDS011;6257;57.634;18.310;2022-08-19T09:56:42;10.53;;;7.17;;
12385;SDS011;6257;57.634;18.310;2022-08-19T09:59:09;11.93;;;7.23;;
12385;SDS011;6257;57.634;18.310;2022-08-19T10:01:37;11.63;;;6.90;;
12385;SDS011;6257;57.634;18.310;2022-08-19T10:04:06;12.63;;;7.37;;
12385;SDS011;6257;57.634;18.310;2022-08-19T10:06:35;16.97;;;7.23;;
12385;SDS011;6257;57.634;18.310;2022-08-19T10:09:04;13.00;;;7.70;;
12385;SDS011;6257;57.634;18.310;2022-08-19T10:11:32;13.67;;;7.10;;
12385;SDS011;6257;57.634;18.310;2022-08-19T10:14:03;10.13;;;7.00;;
12385;SDS011;6257;57.634;18.310;2022-08-19T10:16:32;12.67;;;7.63;;
12385;SDS011;6257;57.634;18.310;2022-08-19T10:18:59;17.97;;;7.67;;
12385;SDS011;6257;57.634;18.310;2022-08-19T10:21:29;11.67;;;7.30;;
12385;SDS011;6257;57.634;18.310;2022-08-19T10:23:57;11.57;;;7.33;;
12385;SDS011;6257;57.634;18.310;2022-08-19T10:26:27;9.80;;;7.00;;
12385;SDS011;6257;57.634;18.310;2022-08-19T10:28:56;13.97;;;7.80;;
12385;SDS011;6257;57.634;18.310;2022-08-19T10:31:26;11.97;;;6.90;;
12385;SDS011;6257;57.634;18.310;2022-08-19T10:33:54;10.70;;;7.33;;
12385;SDS011;6257;57.634;18.310;2022-08-19T10:36:24;11.37;;;7.17;;
12385;SDS011;6257;57.634;18.310;2022-08-19T10:38:55;13.47;;;7.60;;
12385;SDS011;6257;57.634;18.310;2022-08-19T10:41:27;15.20;;;8.17;;
12385;SDS011;6257;57.634;18.310;2022-08-19T10:43:57;9.37;;;6.80;;
12385;SDS011;6257;57.634;18.310;2022-08-19T10:46:27;10.00;;;6.83;;
12385;SDS011;6257;57.634;18.310;2022-08-19T10:48:57;12.77;;;6.73;;
12385;SDS011;6257;57.634;18.310;2022-08-19T10:51:25;11.27;;;7.33;;
12385;SDS011;6257;57.634;18.310;2022-08-19T10:54:11;8.77;;;6.73;;
12385;SDS011;6257;57.634;18.310;2022-08-19T10:56:38;12.83;;;7.13;;
12385;SDS011;6257;57.634;18.310;2022-08-19T10:59:17;9.47;;;6.43;;
12385;SDS011;6257;57.634;18.310;2022-08-19T11:01:45;9.43;;;6.63;;
12385;SDS011;6257;57.634;18.310;2022-08-19T11:04:12;13.33;;;7.10;;
12385;SDS011;6257;57.634;18.310;2022-08-19T11:06:42;11.07;;;6.53;;
12385;SDS011;6257;57.634;18.310;2022-08-19T11:09:14;12.77;;;7.20;;
12385;SDS011;6257;57.634;18.310;2022-08-19T11:11:42;14.63;;;6.80;;
12385;SDS011;6257;57.634;18.310;2022-08-19T11:14:11;11.60;;;6.80;;
12385;SDS011;6257;57.634;18.310;2022-08-19T11:16:40;11.73;;;7.13;;
12385;SDS011;6257;57.634;18.310;2022-08-19T11:19:09;12.13;;;6.83;;
12385;SDS011;6257;57.634;18.310;2022-08-19T11:21:38;10.33;;;7.07;;
12385;SDS011;6257;57.634;18.310;2022-08-19T11:24:09;19.93;;;7.47;;
12385;SDS011;6257;57.634;18.310;2022-08-19T11:26:39;11.47;;;7.30;;
12385;SDS011;6257;57.634;18.310;2022-08-19T11:29:08;14.60;;;7.67;;
12385;SDS011;6257;57.634;18.310;2022-08-19T11:31:38;11.23;;;7.40;;
12385;SDS011;6257;57.634;18.310;2022-08-19T11:34:07;12.83;;;7.83;;
12385;SDS011;6257;57.634;18.310;2022-08-19T11:36:36;14.77;;;7.63;;
12385;SDS011;6257;57.634;18.310;2022-08-19T11:39:06;13.40;;;7.70;;
12385;SDS011;6257;57.634;18.310;2022-08-19T11:41:34;13.07;;;7.90;;
12385;SDS011;6257;57.634;18.310;2022-08-19T11:44:03;9.53;;;7.70;;
12385;SDS011;6257;57.634;18.310;2022-08-19T11:46:33;13.77;;;8.00;;
12385;SDS011;6257;57.634;18.310;2022-08-19T11:49:02;11.47;;;7.57;;
12385;SDS011;6257;57.634;18.310;2022-08-19T11:51:30;15.23;;;8.13;;
12385;SDS011;6257;57.634;18.310;2022-08-19T11:53:59;11.87;;;7.63;;
12385;SDS011;6257;57.634;18.310;2022-08-19T11:56:27;11.00;;;7.93;;
12385;SDS011;6257;57.634;18.310;2022-08-19T11:58:55;12.60;;;7.80;;
12385;SDS011;6257;57.634;18.310;2022-08-19T12:01:25;14.13;;;7.83;;
12385;SDS011;6257;57.634;18.310;2022-08-19T12:03:54;12.60;;;7.43;;
12385;SDS011;6257;57.634;18.310;2022-08-19T12:06:23;10.90;;;7.70;;
12385;SDS011;6257;57.634;18.310;2022-08-19T12:08:53;11.07;;;7.70;;
12385;SDS011;6257;57.634;18.310;2022-08-19T12:11:21;14.30;;;7.40;;
12385;SDS011;6257;57.634;18.310;2022-08-19T12:13:49;13.67;;;7.57;;
12385;SDS011;6257;57.634;18.310;2022-08-19T12:16:19;11.93;;;8.03;;
12385;SDS011;6257;57.634;18.310;2022-08-19T12:18:49;16.70;;;8.67;;
12385;SDS011;6257;57.634;18.310;2022-08-19T12:21:18;16.17;;;7.80;;
12385;SDS011;6257;57.634;18.310;2022-08-19T12:23:47;10.80;;;7.37;;
12385;SDS011;6257;57.634;18.310;2022-08-19T12:26:16;13.77;;;8.50;;
12385;SDS011;6257;57.634;18.310;2022-08-19T12:28:44;14.33;;;8.17;;
12385;SDS011;6257;57.634;18.310;2022-08-19T12:31:13;14.73;;;8.37;;
12385;SDS011;6257;57.634;18.310;2022-08-19T12:33:41;14.30;;;8.20;;
12385;SDS011;6257;57.634;18.310;2022-08-19T12:36:11;9.53;;;8.00;;
12385;SDS011;6257;57.634;18.310;2022-08-19T12:38:40;12.67;;;8.50;;
12385;SDS011;6257;57.634;18.310;2022-08-19T12:41:09;11.70;;;7.97;;
12385;SDS011;6257;57.634;18.310;2022-08-19T12:43:38;12.90;;;7.90;;
12385;SDS011;6257;57.634;18.310;2022-08-19T12:46:06;15.03;;;8.93;;
12385;SDS011;6257;57.634;18.310;2022-08-19T12:48:35;10.37;;;8.00;;
12385;SDS011;6257;57.634;18.310;2022-08-19T12:51:05;14.50;;;8.60;;
12385;SDS011;6257;57.634;18.310;2022-08-19T12:53:35;12.57;;;7.67;;
12385;SDS011;6257;57.634;18.310;2022-08-19T12:56:03;17.80;;;8.57;;
12385;SDS011;6257;57.634;18.310;2022-08-19T12:58:30;12.40;;;7.67;;
12385;SDS011;6257;57.634;18.310;2022-08-19T13:00:59;11.87;;;7.63;;
12385;SDS011;6257;57.634;18.310;2022-08-19T13:03:31;11.43;;;8.13;;
12385;SDS011;6257;57.634;18.310;2022-08-19T13:05:58;10.67;;;7.10;;
12385;SDS011;6257;57.634;18.310;2022-08-19T13:08:25;11.67;;;7.43;;
12385;SDS011;6257;57.634;18.310;2022-08-19T13:10:54;12.43;;;7.97;;
12385;SDS011;6257;57.634;18.310;2022-08-19T13:13:21;11.03;;;8.17;;
12385;SDS011;6257;57.634;18.310;2022-08-19T13:15:50;9.93;;;7.57;;
12385;SDS011;6257;57.634;18.310;2022-08-19T13:18:18;8.90;;;7.17;;
12385;SDS011;6257;57.634;18.310;2022-08-19T13:20:45;12.30;;;7.27;;
12385;SDS011;6257;57.634;18.310;2022-08-19T13:23:12;12.47;;;7.63;;
12385;SDS011;6257;57.634;18.310;2022-08-19T13:25:39;11.27;;;7.37;;
12385;SDS011;6257;57.634;18.310;2022-08-19T13:28:07;9.33;;;7.17;;
12385;SDS011;6257;57.634;18.310;2022-08-19T13:30:34;9.07;;;7.37;;
12385;SDS011;6257;57.634;18.310;2022-08-19T13:33:19;9.87;;;7.17;;
12385;SDS011;6257;57.634;18.310;2022-08-19T13:35:47;10.80;;;7.47;;
12385;SDS011;6257;57.634;18.310;2022-08-19T13:38:16;13.63;;;8.27;;
12385;SDS011;6257;57.634;18.310;2022-08-19T13:40:45;10.07;;;7.63;;
12385;SDS011;6257;57.634;18.310;2022-08-19T13:43:16;9.37;;;7.50;;
12385;SDS011;6257;57.634;18.310;2022-08-19T13:45:44;10.20;;;7.50;;
12385;SDS011;6257;57.634;18.310;2022-08-19T13:48:11;12.03;;;7.97;;
12385;SDS011;6257;57.634;18.310;2022-08-19T13:50:40;12.93;;;7.40;;
12385;SDS011;6257;57.634;18.310;2022-08-19T13:53:08;14.30;;;7.37;;
12385;SDS011;6257;57.634;18.310;2022-08-19T13:55:37;13.07;;;7.70;;
12385;SDS011;6257;57.634;18.310;2022-08-19T13:58:04;11.10;;;7.33;;
12385;SDS011;6257;57.634;18.310;2022-08-19T14:00:33;10.43;;;7.40;;
12385;SDS011;6257;57.634;18.310;2022-08-19T14:03:03;10.10;;;7.30;;
12385;SDS011;6257;57.634;18.310;2022-08-19T14:05:30;12.47;;;7.33;;
12385;SDS011;6257;57.634;18.310;2022-08-19T14:07:58;9.67;;;7.30;;
12385;SDS011;6257;57.634;18.310;2022-08-19T14:10:26;9.03;;;7.23;;
12385;SDS011;6257;57.634;18.310;2022-08-19T14:12:55;10.27;;;7.13;;
12385;SDS011;6257;57.634;18.310;2022-08-19T14:15:24;11.60;;;7.03;;
12385;SDS011;6257;57.634;18.310;2022-08-19T14:17:53;8.60;;;6.80;;
12385;SDS011;6257;57.634;18.310;2022-08-19T14:20:20;9.40;;;6.77;;
12385;SDS011;6257;57.634;18.310;2022-08-19T14:22:48;10.90;;;7.33;;
12385;SDS011;6257;57.634;18.310;2022-08-19T14:25:16;11.00;;;7.03;;
12385;SDS011;6257;57.634;18.310;2022-08-19T14:27:45;9.47;;;6.80;;
12385;SDS011;6257;57.634;18.310;2022-08-19T14:30:13;11.27;;;7.40;;
12385;SDS011;6257;57.634;18.310;2022-08-19T14:32:42;12.67;;;7.23;;
12385;SDS011;6257;57.634;18.310;2022-08-19T14:35:11;8.57;;;7.20;;
12385;SDS011;6257;57.634;18.310;2022-08-19T14:37:39;12.40;;;7.07;;
12385;SDS011;6257;57.634;18.310;2022-08-19T14:40:07;13.53;;;7.03;;
12385;SDS011;6257;57.634;18.310;2022-08-19T14:42:35;10.80;;;6.80;;